createdAt,value
2018-05-13T00:00:36.597Z,13.63
2018-05-13T00:03:04.075Z,13.93
2018-05-13T00:05:31.589Z,15.10
2018-05-13T00:07:59.129Z,15.53
2018-05-13T00:10:26.641Z,14.27
2018-05-13T00:12:54.131Z,13.73
2018-05-13T00:15:21.640Z,14.77
2018-05-13T00:17:49.124Z,14.70
2018-05-13T00:20:16.634Z,13.67
2018-05-13T00:22:45.773Z,14.47
2018-05-13T00:25:13.277Z,13.83
2018-05-13T00:27:40.788Z,14.33
2018-05-13T00:30:08.274Z,12.87
2018-05-13T00:32:35.786Z,12.50
2018-05-13T00:35:03.272Z,12.90
2018-05-13T00:37:30.784Z,13.67
2018-05-13T00:39:58.327Z,13.20
2018-05-13T00:42:26.589Z,13.70
2018-05-13T00:44:54.171Z,13.47
2018-05-13T00:47:21.650Z,13.63
2018-05-13T00:49:49.170Z,13.47
2018-05-13T00:52:17.429Z,14.10
2018-05-13T00:54:55.672Z,14.50
2018-05-13T00:57:23.953Z,12.77
2018-05-13T00:59:51.968Z,12.70
2018-05-13T01:02:19.508Z,15.10
2018-05-13T01:04:46.993Z,15.10
2018-05-13T01:07:14.477Z,13.03
2018-05-13T01:09:43.826Z,13.57
2018-05-13T01:12:11.301Z,14.87
2018-05-13T01:14:38.848Z,13.53
2018-05-13T01:17:06.367Z,13.60
2018-05-13T01:19:33.904Z,15.20
2018-05-13T01:22:02.159Z,13.90
2018-05-13T01:24:29.641Z,14.80
2018-05-13T01:26:57.153Z,13.97
2018-05-13T01:29:24.647Z,14.80
2018-05-13T01:31:52.936Z,16.60
2018-05-13T01:34:20.417Z,15.47
2018-05-13T01:36:47.927Z,14.43
2018-05-13T01:39:15.442Z,15.33
2018-05-13T01:41:42.962Z,16.70
2018-05-13T01:44:11.250Z,16.50
2018-05-13T01:46:38.762Z,16.60
2018-05-13T01:49:06.264Z,16.20
2018-05-13T01:51:34.064Z,16.37
2018-05-13T01:54:01.580Z,16.50
2018-05-13T01:56:30.059Z,16.20
2018-05-13T01:58:58.014Z,14.97
2018-05-13T02:01:26.349Z,14.27
2018-05-13T02:03:53.845Z,15.20
2018-05-13T02:06:22.101Z,15.10
2018-05-13T02:08:49.605Z,15.37
2018-05-13T02:11:17.081Z,14.80
2018-05-13T02:13:44.621Z,15.23
2018-05-13T02:16:12.169Z,12.40
2018-05-13T02:18:39.696Z,13.23
2018-05-13T02:21:07.948Z,14.43
2018-05-13T02:23:35.429Z,9.63
2018-05-13T02:26:03.716Z,12.37
2018-05-13T02:28:32.030Z,15.33
2018-05-13T02:30:59.520Z,17.07
2018-05-13T02:33:27.019Z,19.00
2018-05-13T02:35:55.147Z,18.40
2018-05-13T02:38:22.714Z,18.83
2018-05-13T02:40:50.255Z,17.30
2018-05-13T02:43:17.768Z,15.43
2018-05-13T02:45:45.265Z,11.70
2018-05-13T02:48:12.789Z,12.60
2018-05-13T02:50:40.315Z,10.73
2018-05-13T02:53:08.601Z,11.80
2018-05-13T02:55:36.096Z,12.40
2018-05-13T02:58:03.606Z,14.27
2018-05-13T03:00:32.461Z,14.43
2018-05-13T03:02:59.974Z,13.40
2018-05-13T03:05:27.501Z,13.20
2018-05-13T03:07:55.807Z,14.27
2018-05-13T03:10:23.377Z,14.47
2018-05-13T03:12:50.922Z,13.20
2018-05-13T03:15:18.459Z,15.63
2018-05-13T03:17:45.978Z,16.03
2018-05-13T03:20:13.465Z,15.30
2018-05-13T03:22:41.729Z,13.83
2018-05-13T03:25:10.005Z,14.30
2018-05-13T03:27:37.548Z,14.50
2018-05-13T03:30:05.035Z,14.67
2018-05-13T03:32:33.313Z,15.97
2018-05-13T03:35:02.346Z,15.30
2018-05-13T03:37:29.933Z,15.00
2018-05-13T03:39:57.474Z,16.60
2018-05-13T03:42:24.973Z,16.60
2018-05-13T03:44:52.486Z,17.47
2018-05-13T03:47:20.011Z,17.57
2018-05-13T03:49:47.503Z,16.60
2018-05-13T03:52:15.009Z,15.40
2018-05-13T03:54:43.288Z,18.00
2018-05-13T03:57:10.796Z,18.00
2018-05-13T03:59:38.293Z,16.93
2018-05-13T04:02:06.576Z,17.43
2018-05-13T04:04:34.082Z,17.00
2018-05-13T04:07:01.595Z,19.60
2018-05-13T04:09:40.841Z,19.00
2018-05-13T04:12:20.377Z,21.10
2018-05-13T04:14:59.681Z,20.80
2018-05-13T04:17:27.961Z,21.93
2018-05-13T04:19:56.204Z,22.87
2018-05-13T04:22:23.705Z,20.87
2018-05-13T04:24:51.206Z,19.60
2018-05-13T04:27:18.708Z,19.73
2018-05-13T04:29:46.229Z,18.77
2018-05-13T04:32:13.748Z,18.87
2018-05-13T04:34:41.230Z,19.90
2018-05-13T04:37:08.750Z,18.00
2018-05-13T04:39:36.270Z,18.07
2018-05-13T04:42:04.552Z,19.50
2018-05-13T04:44:32.845Z,16.47
2018-05-13T04:47:01.094Z,17.57
2018-05-13T04:49:28.593Z,15.50
2018-05-13T04:51:56.085Z,16.07
2018-05-13T04:54:23.599Z,18.47
2018-05-13T04:56:51.072Z,16.27
2018-05-13T04:59:18.580Z,18.90
2018-05-13T05:01:46.834Z,17.00
2018-05-13T05:04:14.340Z,17.13
2018-05-13T05:06:42.781Z,17.17
2018-05-13T05:09:11.064Z,19.87
2018-05-13T05:11:38.591Z,19.40
2018-05-13T05:14:06.089Z,17.70
2018-05-13T05:16:34.332Z,19.40
2018-05-13T05:19:01.843Z,20.50
2018-05-13T05:21:29.357Z,19.30
2018-05-13T05:23:56.876Z,19.50
2018-05-13T05:26:24.369Z,19.00
2018-05-13T05:28:51.858Z,20.40
2018-05-13T05:31:19.365Z,20.40
2018-05-13T05:33:46.841Z,19.37
2018-05-13T05:36:14.347Z,22.30
2018-05-13T05:38:41.840Z,21.00
2018-05-13T05:41:09.350Z,21.87
2018-05-13T05:43:36.833Z,22.67
2018-05-13T05:46:04.357Z,23.37
2018-05-13T05:48:31.863Z,25.33
2018-05-13T05:50:59.356Z,26.00
2018-05-13T05:53:27.629Z,22.90
2018-05-13T05:55:55.877Z,22.93
2018-05-13T05:58:23.396Z,22.57
2018-05-13T06:00:52.051Z,24.03
2018-05-13T06:03:20.376Z,23.57
2018-05-13T06:05:48.578Z,25.03
2018-05-13T06:08:16.085Z,26.30
2018-05-13T06:10:43.571Z,24.37
2018-05-13T06:13:11.090Z,25.73
2018-05-13T06:15:38.591Z,24.60
2018-05-13T06:18:06.097Z,23.87
2018-05-13T06:20:33.711Z,25.37
2018-05-13T06:23:01.237Z,27.00
2018-05-13T06:25:28.725Z,25.07
2018-05-13T06:27:56.231Z,28.00
2018-05-13T06:30:23.754Z,27.23
2018-05-13T06:32:51.245Z,29.90
2018-05-13T06:35:18.762Z,28.83
2018-05-13T06:37:46.280Z,29.87
2018-05-13T06:40:14.597Z,30.13
2018-05-13T06:42:42.113Z,30.03
2018-05-13T06:45:09.624Z,30.50
2018-05-13T06:47:37.128Z,31.10
2018-05-13T06:50:04.601Z,33.73
2018-05-13T06:52:32.137Z,33.37
2018-05-13T06:54:59.625Z,34.77
2018-05-13T06:57:27.152Z,35.10
2018-05-13T06:59:54.636Z,36.37
2018-05-13T07:02:22.176Z,36.83
2018-05-13T07:04:49.700Z,35.83
2018-05-13T07:07:17.189Z,33.23
2018-05-13T07:09:44.698Z,32.67
2018-05-13T07:12:12.985Z,32.40
2018-05-13T07:14:41.176Z,35.10
2018-05-13T07:17:08.677Z,36.27
2018-05-13T07:19:36.165Z,34.50
2018-05-13T07:22:04.438Z,33.70
2018-05-13T07:24:32.698Z,34.20
2018-05-13T07:27:00.980Z,34.70
2018-05-13T07:29:29.235Z,35.70
2018-05-13T07:31:56.752Z,36.10
2018-05-13T07:34:24.255Z,30.50
2018-05-13T07:36:51.758Z,32.63
2018-05-13T07:39:19.265Z,33.20
2018-05-13T07:41:46.755Z,31.93
2018-05-13T07:44:14.291Z,34.57
2018-05-13T07:46:42.576Z,34.80
2018-05-13T07:49:10.840Z,37.27
2018-05-13T07:51:39.128Z,34.90
2018-05-13T07:54:08.314Z,36.90
2018-05-13T07:56:36.622Z,34.17
2018-05-13T07:59:04.122Z,36.30
2018-05-13T08:01:31.641Z,34.87
2018-05-13T08:03:59.136Z,34.20
2018-05-13T08:06:26.654Z,33.97
2018-05-13T08:08:54.148Z,35.07
2018-05-13T08:11:22.124Z,36.17
2018-05-13T08:13:49.629Z,37.50
2018-05-13T08:16:17.145Z,37.03
